Ksea taf. METAR KSEA 010653Z 03009KT 10SM CLR 18/10 A3011 RMK AO2...

METAR KSEA 151553Z 02006KT 10SM CLR 25/14 A3001 RMK AO2 SLP164 T02500

Updated at 0837 UTC 08 Oct 2023. NOTE: LAMP data beyond the time of the TAF data is denoted as LAMP in Type and colored magenta. For situational awareness. Not to be used for flight planning purposes. Aviation Weather Center Homepage provides comprehensive user-friendly aviation weather Text products and graphics. METAR KSEA 120953Z 05005KT 10SM SCT250 18/12 A3015 RMK AO2 SLP213 T01780117 $. The wind is from direction 050° with a speed of 5 kt. Visibility is 10 mi. No ceiling has been observed. ... KSEA - Seattle-Tacoma International Airport METAR TAF. KRNT - Renton Municipal Airport (4.7 NM) METAR KBFI - Boeing Field/King County International ...METAR KSEA 090553Z 02008KT 10SM FEW090 SCT150 21/12 A2992 RMK AO2 SLP136 T02060122 10261 20200 58002. The wind is from direction 020° with a speed of 8 kt. Visibility is 10 mi. ... KSEA - Seattle-Tacoma International Airport METAR TAF. KRNT - Renton Municipal Airport (4.7 NM) METAR KBFI - Boeing Field/King County International ...METAR KSEA 281530Z 20012KT 10SM SCT009 BKN015 BKN050 12/11 A3004 RMK AO2 T01220111. The wind is from direction 200° with a speed of 12 kt. Visibility is 10 mi. The ceiling, broken or more, is 1,500 ft. The temperature and wind chill are 12 °C.KSEA 121053Z 19004KT 10SM OVC044 14/10 A3007 RMK AO2 SLP185 T01390100. KSEA 120953Z 17004KT 10SM OVC044 14/11 A3007 RMK AO2 SLP187 T01440106. KSEA 120853Z 17004KT 10SM SCT250 14/11 A3007 RMK AO2 SLP188 T01390106 51003. KSEA 120753Z 19004KT 10SM FEW049 BKN250 14/10 A3007 RMK AO2 SLP188 T01440100 402280144. KSEA 120653Z 21004KT 10SM BKN046 15/12 ...Flight plan departing from KSEA - Seattle-Tacoma Intl, arriving at KBFI - Boeing Fld King Co Intl. Distance 5 nm / 9 km. Download for FSX, X-Plane, PMDG, Infinite Flight, PDF or other products. ... TAF AMD KBFI 180303Z 1803/1824 14005KT P6SM FEW050 OVC090 FM180500 16008KT P6SM BKN100 OVC200 FM181000 16008KT P6SM VCSH BKN030 OVC050 FM181700 ...Heavy rain, flooding, and gusty winds are expected in parts of New England and the Northeast from the arrival of a cold front and the remnants of Philippe. Widespread red flag warnings are in effect across the South for critical fire weather conditions due to dry conditions and gusty winds. Read More >.E6B, NavLog Calculator, Weather Reports, METAR, TAF, Wind Components, Instrument Simulator, Weight and Balance, Pressure Altitude, Density Altitude, True Air Speed, and …TAF for: KINT (Winston-Salem/Reynol, NC, US) issued at 0531 UTC 10 Mar 2023: Text: KINT 100531Z 1006/1106 15004KT P6SM BKN070 OVC120 : Forecast period: 0600 to 0900 UTC 10 March 2023: Forecast type: FROM: standard forecast or significant change ...23 Des 2022 ... Current METAR: KSEA 231353Z 11009KT 2 1/2SM -FZDZ BR FEW005 OVC012 M03/M04 A2995 https://flightradar24.com/airport/sea. Flights bound for ...TAF for: KSEA (Seattle-Tacoma Intl, WA, US) issued at 0526 UTC 16 Sep 2023: Text: KSEA 160526Z 1606/1712 01005KT P6SM SKC : Forecast period: 0600 to 1400 UTC 16 September 2023: Forecast type: FROM: standard forecast or significant change: Winds: from the N (10 degrees) at 6 MPH (5 knots; 2.6 m/s)Flight plan departing from KSEA - Seattle Tacoma Intl, arriving at KJFK - John F Kennedy Intl. Distance 2,121 nm / 3,928 km. Download for FSX, X-Plane, PMDG, Infinite Flight, PDF or other products. ... TAF. KSEA 052339Z 0600/0706 25006KT P6SM SCT035 SCT250 FM060200 30004KT P6SM SCT250 FM061500 VRB02KT P6SM OVC035 FM061800 23003KT P6SM BKN070 ...KSEA - Seattle-Tacoma Intl, WA, US. Issued at 1733 UTC 23 Jul 2023. Updated at 1828 UTC 23 Jul 2023. Potential Impact: None: Slight: Moderate: High: Time 1753Z 23/19Z 23/20Z 23/21Z 23/22Z 23/23Z ... NOTE: LAMP data beyond the time of the TAF data is denoted as LAMP in Type and colored magenta.METAR Home Plot Data Board Info IDs: Format: Raw Decoded Include TAF Data at: 0112 UTC 24 Sep 2023 Page loaded: 01:12 UTC | 06:12 PM Pacific | 07:12 PM Mountain | 08:12 PM Central | 09:12 PM Eastern Aviation Weather Center Homepage provides comprehensive user-friendly aviation weather Text products and graphics.METAR KSEA 071653Z 28004KT 10SM BKN250 22/08 A2986 RMK AO2 SLP113 T02170078. The wind is from direction 280° with a speed of 4 kt. Visibility is 10 mi. The ceiling, broken or more, is 25,000 ft. The temperature and wind chill are 22 °C.lfpg 190330z auto 22009kt cavok 14/11 q1015 taf lfpg 182300z 1900/2006 25010kt cavok tx20/1915z tn13/1906z prob30 ... ksea 190253z 03007kt 10sm bkn060 16/05 a3010 rmk ao2 slp198 t01560050 55002 ksea 182336z 1900/2006 35008kt p6sm sct035 bkn060 fm190300 03005kt p6sm bkn120 ovc200 fm191100 11007kt p6sm bkn050 ovc090 fm191600 21006kt ...METAR KSEA 310353Z 35006KT 10SM SCT055 BKN250 14/06 A3000 RMK AO2 SLP164 T01390061. The wind is from direction 350° with a speed of 6 kt. Visibility is 10 mi. The ceiling, broken or more, is 25,000 ft. The temperature and wind chill are 14 °C.Flight plan departing from KSEA - Seattle-Tacoma Intl, arriving at KPEA - PELLA MUNI. Distance 1,317 nm / 2,438 km. Download for FSX, X-Plane, PMDG, Infinite Flight, PDF or other products. OMjVJFpU-f9FPytQQuAUnpf4ycLYCuRmDgKktaf rctp 251100z 2512/2618 05005kt 7000 sct004 bkn007 bkn020 tempo 2512/2518 16005kt 4000 ra br few003 bkn004 bkn020 tempo 2518/2524 24005kt 5000 ra sct005 bkn011 bkn030 tempo 2600/2606 04010kt sct008 bkn015 bkn030 becmg 2606/2608 04013kt few008 bkn018 bkn030. taf ...TAF Decoder. A Terminal Aerodrome Forecast (TAF) is a concise statement of the expected meteorological conditions at an airport during a specified period (usually 24 hours). Each ICAO state may modify the code as needed. The TAF code, as described here, is the one used in the United States. TAFs use the same weather code found in METAR weather ... METAR KSEA 010253Z 00000KT 10SM FEW025 13/07 A3007 RMK AO2 SLP190 T01280072 53005 $. There is little or no wind from a variable direction. Visibility is 10 mi. ... KSEA - Seattle-Tacoma International Airport METAR TAF. KRNT - Renton Municipal Airport (4.7 NM) METAR KBFI - Boeing Field/King County International ...METAR KSEA 281530Z 20012KT 10SM SCT009 BKN015 BKN050 12/11 A3004 RMK AO2 T01220111. The wind is from direction 200° with a speed of 12 kt. Visibility is 10 mi. The ceiling, broken or more, is 1,500 ft. The temperature and wind chill are 12 °C.Western Storm Spreads East. A western storm will slowly spread accumulating snow into the Intermountain West and Rockies, while heavy snow persists across the southern Sierra-Nevada mountains.METAR KSEA 090553Z 02008KT 10SM FEW090 SCT150 21/12 A2992 RMK AO2 SLP136 T02060122 10261 20200 58002. The wind is from direction 020° with a speed of 8 kt. Visibility is 10 mi. ... KSEA - Seattle-Tacoma International Airport METAR TAF. KRNT - Renton Municipal Airport (4.7 NM) METAR KBFI - Boeing Field/King County …METAR KSEA 311653Z VRB05KT 10SM FEW025 FEW050 19/10 A3016 RMK AO2 SLP218 T01940100. There is little or no wind from a variable direction. Visibility is 10 mi. ... KSEA - Seattle-Tacoma International Airport METAR TAF. KRNT - Renton Municipal Airport (4.7 NM) METAR KBFI - Boeing Field/King County International ...KSEA 111353Z 11012KT 7SM -RA FEW035 BKN045 OVC060 11/08 A2952 RMK AO2 SLP002 P0008 T01060083: Conditions at: KSEA (SEATTLE/METRO , WA, US) observed 1353 UTC 11 October 2023 Temperature: 10.6°C (51°F) Dewpoint: 8.3°C (47°F) [RH = 86%] Pressure (altimeter): 29.52 inches Hg (999.7 mb)Impacts TAF Board. TAF Home. Plot. Data. Board. Info. For situational awareness. Not to be used for flight planning purposes. IDs: KSEA - Seattle-Tacoma Intl, WA, US. Issued at 0555 UTC 10 Jul 2023. Updated at 0823 UTC 10 Jul 2023. Potential Impact: None: Slight: Moderate: High: Time <<10/21Z 10/22Z 10/23Z 11/00Z 11/01ZKSEA METAR TAF AREA METARS AREA TAFS 2 AIRMETS KSEA. UTC. Seattle–Tacoma International Airport SeaTac, Washington, United States. METAR - Current. KSEA 200753Z 20012KT 10SM FEW027 BKN033 OVC055 13/09 A2998 RMK AO2 RAB19E28 SLP157 P0000 T01330089 401940117. Observed. Sep 20 07:53 UTC.Airport Ownership and Management from official FAA records. Ownership: Publicly-owned. Owner: TOLEDO LUCAS COUNTY PORT AUTHORITY. 11013 AIRPORT HWY. SWANTON, OH 43558-9321. Phone 419-865-2351. Manager:taf: ksea 100138z 1002/1106 21009g18kt p6sm -shra bkn025 bkn050 tempo 1002/1006 sct025 bkn035 fm100600 20006kt p6sm bkn050 ovc070 fm101400 16008kt p6sm -ra ovc040 fm101900 14008kt p6sm -shra ovc040 Weather observations and forecasts of more than 4000 airports (METAR and TAF reports).Format: Raw Decoded Include METAR. Data at: 1011 UTC 09 Oct 2023. RCTP 091000Z 04016G26KT 360V070 9999 -RA SCT007 BKN009 BKN015 24/23 Q1016 WS R05R NOSIG RMK A3001. TAF RCTP 090500Z 0906/1012 04020KT 9999 SCT006 BKN008 BKN015. TEMPO 0906/0912 SCT007 BKN012 BKN025. TEMPO 0918/0924 5000 RA SCT003 BKN005 BKN012.Flight plan departing from KSEA - Seattle-Tacoma Intl, arriving at KJFK - John F. Kennedy Intl. Distance 2,112 nm / 3,912 km. Download for FSX, X-Plane, PMDG, Infinite Flight, PDF or other products. ... TAF AMD KSEA 200322Z 2003/2106 20009KT P6SM -SHRA OVC035 FM200900 02006KT P6SM -SHRA OVC025 FM201900 35011KT P6SM SCT025 BKN050 Decode ...data at: 1656 utc 04 oct 2023. ksea 041653z 24004kt 10sm few007 ovc010 13/09 a3036 rmk ao2 slp287 t01330094 ksea 041553z 17004kt 10sm sct007 bkn012 13/11 a3035 rmk ao2 slp282 t01280106 ksea 041507z 17003kt 10sm sct007 ovc010 12/10 a3034 rmk ao2 t01220100 ksea 041453z 19003kt 10sm bkn007 ovc010 12/11 a3034 rmk ao2 slp281 t01220106 53007 ksea 041424z 23003kt 10sm ovc007 12/11 a3034 rmk ao2 cig ... METAR KSEA 292253Z 35014G20KT 10SM FEW030 SCT250 15/07 A2991 RMK AO2 SLP136 T01500072 $. The wind is from direction 350° with a speed of 14 kt. Visibility is 10 mi. ... KSEA - Seattle-Tacoma International Airport METAR TAF. KRNT - Renton Municipal Airport (4.7 NM) METAR KBFI - Boeing Field/King County International ...Board. Info. IDs: Format: Raw Decoded Include TAF. Data at: 0557 UTC 28 Sep 2023. CYVR 280500Z 11004KT 20SM FEW012 BKN051 OVC077 12/12 A3003 RMK CF1SC6AC2 CF TR SLP170. TAF CYVR 280540Z 2806/2912 11005KT P6SM FEW010 SCT015 BKN050. TEMPO 2806/2809 5SM -SHRA SCT006 BKN015 OVC040.IDs: Search METAR Sites. ADDS Station Table. NCEI METAR Archive. Page loaded: 22:18 UTC | 03:18 PM Pacific | 04:18 PM Mountain | 05:18 PM Central | 06:18 PM Eastern. Aviation Weather Center Homepage provides comprehensive user-friendly aviation weather Text products and graphics.NOTE: LAMP data beyond the time of the TAF data is denoted as LAMP in Type and colored magenta. Raw TAF. KMSP 210900Z 2109/2212 14006KT P6SM FEW250. FM212000 15010KT P6SM FEW250. Raw METAR.METAR KSEA 302353Z 25004KT 10SM FEW023 16/08 A3006 RMK AO2 SLP185 T01560078 10167 20117 53001 $. The wind is from direction 250° with a speed of 4 kt. Visibility is 10 mi. ... KSEA - Seattle-Tacoma International Airport METAR TAF. KRNT - Renton Municipal Airport (4.7 NM) METAR KBFI - Boeing Field/King County International ...TAF KTCM 012100Z 0121/0303 01012KT 9999 SKC QNH3006INS BECMG 0204/0205 18004KT 9999 SCT070 BKN100 QNH3004INS BECMG 0214/0215 20006KT 9999 SCT008 BKN050 ...TAF Boeing Field/King County International. Boeing Field/King County International is a large airport in Washington, United States. The airport is located at latitude 47.53112 and longitude -122.30251. The airport has 2 runways: 14R/32L and 14L/32R. The ICAO airport code of this field is KBFI. The local airport ID (FAA LID) of this airport is BFI.KSEA (SEATTLE/METRO , WA, US) Text: KSEA 111509Z 1115/1218 14010KT P6SM -SHRA SCT025 OVC040 : Forecast period: 1500 to 2100 UTC 11 October 2023 Forecast type: FROM: standard forecast or significant change Winds: from the SE (140 degrees) at 12 MPH (10 knots; 5.1 m/s) Visibility: 6 or more miles (10+ km) Ceiling:METAR KSEA 142153Z 29008KT 10SM CLR 24/12 A3007 RMK AO2 SLP187 T02440117. The wind is from direction 290° with a speed of 8 kt. Visibility is 10 mi. No ceiling has been observed. ... KSEA - Seattle-Tacoma International Airport METAR TAF. KRNT - Renton Municipal Airport (4.7 NM) METAR KBFI - Boeing Field/King County International ...taf; ksea : 121132z 1212/1318 00000kt 1/4sm fg vv001 fm121800 03004kt 4sm br bkn003 fm121900 36006kt 6sm br sct004 fm122000 35007kt p6sm sct200 fm130300 06006kt p6sm ...Updated at 2223 UTC 30 Sep 2023. NOTE: LAMP data beyond the time of the TAF data is denoted as LAMP in Type and colored magenta. For situational awareness. Not to be used for flight planning purposes. Aviation Weather Center Homepage provides comprehensive user-friendly aviation weather Text products and graphics.Impacts TAF Board. TAF Home. Plot. Data. Board. Info. For situational awareness. Not to be used for flight planning purposes. IDs: KSEA - Seattle-Tacoma Intl, WA, US. Issued at 1616 UTC 17 Feb 2023. Updated at 1622 UTC 17 Feb 2023. Potential Impact: None: Slight: Moderate: High: Time 1553Z 17/17Z 17/18Z 17/19Z 17/20Z 17/21Zrjaa 111330z 03007kt 350v060 9999 vcsh few010 sct/// 26/25 q1006 tempo few008 bkn012 taf rjaa 111105z 1112/1218 36006kt 9999 few008 bkn015 tempo 1112/1118 few005 bkn008 ... ksea 111253z 16003kt 10sm ovc044 16/12 a3004 rmk ao2 slp178 t01560117 $ ksea 111139z 1112/1218 05003kt p6sm bkn045 fm111900 27006kt p6sm sct045 fm120000 33005kt ...KSEA - Seattle-Tacoma Intl, WA, US Issued at 1720 UTC 06 Oct 2023 Updated at 1819 UTC 06 Oct 2023 Potential Impact None Slight Moderate High NOTE: LAMP data beyond the time of the TAF data is denoted as LAMP in Type and colored magenta. Raw TAF KSEA 061720Z 0618/0724 02008KT P6SM SCT006 FM061900 01009KT P6SM SCT010 FM062100 35010KT P6SM SKCMETAR KSEA 271553Z VRB03KT 10SM FEW030 FEW120 SCT250 18/10 A3009 RMK AO2 SLP192 T01830100. There is little or no wind from a variable direction. Visibility is 10 mi. ... KSEA - Seattle-Tacoma International Airport METAR TAF. KRNT - Renton Municipal Airport (4.7 NM) METAR KBFI - Boeing Field/King County International ...TAF for: KBFI (Seattle/Boeing Fld, WA, US) issued at 2320 UTC 24 Sep 2023: Text: KBFI 242320Z 2500/2524 14006KT P6SM -RA BKN070 OVC090 : Forecast period:210 ° at 6 KTS. Visibility. Greater than 6 SM. Clouds. Broken at 5,000 ft AGL. Overcast at 9,000 ft AGL. Ceiling. Broken at 5,000 ft AGL. TAF Seattle-Tacoma International Airport KSEA SeaTac, Washington, United States.ksea 171553z 14008kt 1/2sm r16l/p6000ft br bkn003 ovc010 00/m01 a3009 rmk ao2 sfc vis 2 slp198 t00001011 ksea 171321z 1713/1818 14006kt 2sm br ovc008 fm171900 19005kt 1sm br ovc005 fm180000 18003kt p6sm ovc009 fm180300 18005kt 6sm br ovc010. cyvr 171544z 10005kt 2sm -ra br bkn008 02/02 a3007 rmk sc8 slp186 taf amd cyvr 171515z 1715/1818 ...ksea 180853z 19010kt 10sm few035 bkn065 ovc200 16/11 a2998 rmk ao2 slp156 t01610106 52005 ksea 180914z 1809/1912 19010kt p6sm bkn060 fm181000 19010kt p6sm vcsh bkn035 ovc050 tempo 1810/1814 -shra bkn025 ovc040 fm181700 23008kt p6sm sct025 bkn045 fm182100 33006kt p6sm bkn200 fm190500 02005kt p6sm bkn050IDs: Format: Raw Decoded Include TAF. Data at: 1543 UTC 09 Oct 2023. METAR for: KSEA (Seattle-Tacoma Intl, WA, US) Text: KSEA 091453Z 00000KT 10SM FEW030 SCT120 OVC200 14/11 A2967 RMK AO2 SLP050 T01390106 55007 $. Temperature: 13.9°C ( 57°F) Dewpoint:ksea 181453z 11005kt 10sm bkn040 bkn048 14/09 a3005 rmk ao2 slp182 60008 t01390094 51014 ksea 181528z 1815/1918 10006kt p6sm vcsh bkn025 ovc040 fm181700 02008kt p6sm sct025 bkn045 fm182100 33006kt p6sm sct050 sct200 fm190500 vrb05kt p6sm bkn120 ovc200 fm191100 17007kt p6sm bkn050 ovc090. cyyc 181500z 30015kt 10sm bkn240 …Impacts TAF Board. TAF Home. Plot. Data. Board. Info. For situational awareness. Not to be used for flight planning purposes. IDs: KSEA - Seattle-Tacoma Intl, WA, US. Issued at 1135 UTC 09 Oct 2022. Updated at 1215 UTC 09 Oct 2022. Potential Impact: None: Slight: Moderate: High: Time 1153Z 09/13Z 09/14Z 09/15Z 09/16Z 09/17Ztaf: ksea ksea 061720z 0618/0724 02008kt p6sm sct006 fm061900 01009kt p6sm sct010 fm062100 35010kt p6sm skc fm070600 04005kt p6sm skc fm071200 03005kt p6sm bcfg few002 fm071700 09005kt p6sm skc: kbfi 6.0nm nwksea 111453z 12013g21kt 7sm -ra bkn028 ovc041 11/08 a2954 rmk ao2 slp008 p0005 60014 t01110083 53007 ksea 111509z 1115/1218 14010kt p6sm -shra sct025 ovc040 tempo 1115/1117 12013g18kt 6sm -shra bkn025 ovc040 fm112100 23006kt p6sm -shra sct025 bkn045 ovc070 fm112300 35006kt p6sm bkn050 fm120700 vrb03kt p6sm bkn050 fm121300 vrb03kt 4sm br sct002 fm121700 04006kt p6sm skcMETAR KSEA 101253Z 17005KT 10SM -RA FEW048 BKN055 OVC070 11/07 A2958 RMK AO2 SLP021 P0004 T01110072. Current weather is light rain.The wind is from direction 170° with a speed of 5 kt. Visibility is 10 mi. The ceiling, broken or more, is 5,500 ft. The temperature and wind chill are 11 °C.ksea 200153z 22014g22kt 10sm few045 sct100 bkn250 16/09 a3000 rmk ao2 pk wnd 22026/0103 slp166 t01610089 ksea 192320z 2000/2106 20009kt p6sm sct035 bkn090 fm200400 24007kt p6sm -shra ovc040 fm200900 02006kt p6sm -shra ovc025 fm201900 35011kt p6sm sct025 bkn050. kmwn 200156z 29053g72kt 0sm -shra -dz fg vv000 04/04 rmk dzb15 no taf found for kmwn ...METAR KSEA 011153Z 00000KT 10SM CLR 08/05 A3013 RMK AO2 SLP209 T00780050 10111 20072 53002 $. There is little or no wind from a variable direction. Visibility is 10 mi. ... KSEA - Seattle-Tacoma International Airport METAR TAF. KRNT - Renton Municipal Airport (4.7 NM) METAR KBFI - Boeing Field/King County International ...data at: 1930 utc 27 oct 2022. ksea 271853z 19014g23kt 10sm few055 bkn070 bkn200 13/05 a3004 rmk ao2 slp179 t01330050 ksea 271753z 20013g21kt 10sm few030 bkn055 bkn080 12/05 a3005 rmk ao2 pk wnd 19028/1657 slp181 t01220050 10122 20106 53001 ksea 271653z 19017g28kt 10sm few030 bkn065 bkn200 12/06 a3004 rmk ao2 pk wnd 19028/1653 slp178 t01220056 ksea 271553z 18010kt 10sm sct026 bkn033 bkn200 12/ ...METAR KSEA 301553Z 04006KT 9SM FEW010 BKN016 OVC022 11/08 A3004 RMK AO2 SLP178 T01110083 $. The wind is from direction 040° with a speed of 6 kt. Visibility is 9 mi. The ceiling, broken or more, is 1,600 ft. The temperature and wind chill are 11 °C.Metar-Taf.com. METAR KSEA 052253Z 05009KT 10SM FEW020 FEW250 19/12 A3031 RMK AO2 SLP268 T01940122. The wind is from direction 050° with a speed of 9 kt. Visibility is 10 mi. No ceiling has been observed. TAF for: KSEA (Seattle-Tacoma Intl, WA, US) issued at 2146 UTC 17 Sep 2023: Text: KSEA 172146Z 1722/1824 22008KT P6SM BKN200 : Forecast period: 2200 …Plot. Data. Board. Info. IDs: Format: Raw Decoded Include TAF. Data at: 1317 UTC 11 Oct 2023. KSEA 111253Z 13008KT 7SM -RA FEW032 BKN039 OVC050 11/08 A2951 RMK AO2 SLP000 P0001 T01060083. KSEA 111153Z 12007KT 9SM -RA OVC034 11/08 A2952 RMK AO2 RAE07B50 SLP001 P0001 60014 70051 T01060083 10117 20100 52005. KSEA 111053Z 13009KT 8SM -RA SCT034 ... ksea 212353z 03006kt 10sm few040 20/07 a3002 rmk ao2 slp172 t02000072 10211 20150 58017 ksea 212336z 2200/2306 36008kt p6sm few040 fm220300 01005kt p6sm skc fm220900 13003kt p6sm skc fm221500 16003kt 3sm br sct003 fm221800 21005kt ... ktiw 212353z 02006g15kt 10sm clr 19/07 a3001 rmk ao2 slp161 t01940067 10194 20144 56021 no taf found for ktiw.Seattle Tacoma International Airport, (SEA/KSEA), United States - View the latest KSEA METAR reports to find out the current weather conditions at the ...Impacts TAF Board. TAF Home. Plot. Data. Board. Info. For situational awareness. Not to be used for flight planning purposes. IDs: KSEA - Seattle-Tacoma Intl, WA, US. Issued at 2057 UTC 03 Mar 2023. Updated at 2126 UTC 03 Mar 2023. Potential Impact: None: Slight: Moderate: High: Time 2053Z 03/22Z 03/23Z 04/00Z 04/01Z 04/02ZImpacts TAF Board. TAF Home. Plot. Data. Board. Info. For situational awareness. Not to be used for flight planning purposes. IDs: KSEA - Seattle-Tacoma Intl, WA, US. Issued at 1505 UTC 02 Jul 2023. Updated at 1517 UTC 02 Jul 2023. Potential Impact: None: Slight: Moderate: High: Time 1453Z 02/16Z 02/17Z 02/18Z 02/19Z 02/20ZNOTE: LAMP data beyond the time of the TAF data is denoted as LAMP in Type and colored magenta. Raw TAF KSEA 120530Z 1206/1312 01005KT P6SM FEW150 SCT200 FM120800 05003KT P6SM SCT040 BKN200 FM121800 17004KT P6SM BKN080 BKN250 FM130400 19008KT P6SM -RA BKN030 OVC060 KSEA 120530Z 1206/1312 01005KT P6SM FEW150 SCT200 FM120800 05003KT P6SM SCT040Impacts TAF Board. TAF Home. Plot. Data. Board. Info. For situational awareness. Not to be used for flight planning purposes. IDs: KSEA - Seattle-Tacoma Intl, WA, US. Issued at 2338 UTC 22 Apr 2023. Updated at 0102 UTC 23 Apr 2023. Potential Impact: None: Slight: Moderate: High: Time 0053Z 23/02Z 23/03Z 23/04Z 23/05Z 23/06ZTAF Decoder. A Terminal Aerodrome Forecast (TAF) is a concise statement of the expected meteorological conditions at an airport during a specified period (usually 24 hours). Each ICAO state may modify the code as needed. ... (Seattle) becomes KSEA. Elsewhere, the first one or two letters of the ICAO identifier indicate in which region of the ...Updated at 2334 UTC 10 Oct 2023. NOTE: LAMP data beyond the time of the TAF data is denoted as LAMP in Type and colored magenta. For situational awareness. Not to be used for flight planning purposes. Aviation Weather Center Homepage provides comprehensive user-friendly aviation weather Text products and graphics.NOTE: LAMP data beyond the time of the TAF data is denoted as LAMP in Type and colored magenta. Raw TAF KPAE 111134Z 1112/1212 15012KT P6SM -SHRA BKN045 OVC070 FM111400 15012KT P6SM -SHRA SCT025 OVC040 TEMPO 1114/1117 5SM -SHRA BKN025 OVC040 FM112100 24006KT P6SM -SHRA SCT025 BKN045 OVC070 FM112300 34008KT P6SM BKN050 Raw METAR KPAE 111253Z AUTO 12009G20KT 10SM SCT042 BKN049 OVC095 11/08 A2952 ...METAR KSEA 240436Z 20007KT 6SM -RA BR OVC034 08/06 A2990 RMK AO2 P0003 T00780061. Current weather is light rain, mist.The wind is from direction 200° with a speed of 7 kt. Visibility is 6 mi. The ceiling, broken or more, is 3,400 ft. The temperature is 8 °C, with a wind chill of 4 °C.ksea 212353z 03006kt 10sm few040 20/07 a3002 rmk ao2 slp172 t02000072 10211 20150 58017 ksea 212336z 2200/2306 36008kt p6sm few040 fm220300 01005kt p6sm skc fm220900 13003kt p6sm skc fm221500 16003kt 3sm br sct003 fm221800 21005kt ... ktiw 212353z 02006g15kt 10sm clr 19/07 a3001 rmk ao2 slp161 t01940067 10194 20144 56021 no taf found for ktiw.METAR KSEA 141753Z 03006KT 10SM CLR 19/12 A3014 RMK AO2 SLP212 T01890117 10194 20128 58003. The wind is from direction 030° with a speed of 6 kt. Visibility is 10 mi. ... KSEA - Seattle-Tacoma International Airport METAR TAF. KRNT - Renton Municipal Airport (4.7 NM) METAR KBFI - Boeing Field/King County International ...Flight plan departing from KSEA - Seattle-Tacoma Intl, arriving at KTCM - MC CHORD AFB. Distance 20 nm / 37 km. Download for FSX, X-Plane, PMDG, Infinite Flight, PDF or other products. ... TAF KTCM 152100Z 1521/1703 36012KT 9999 SKC QNH2905INS BECMG 1605/1606 VRB06KT 9999 SKC QNH3000INS BECMG 1610/1611 22006KT 9999 FEW030 QNH2990INS TX34/1522Z ...NOTE: LAMP data beyond the time of the TAF data is denoted as LAMP in Type and colored magenta. Raw TAF KSEA 201506Z 2015/2118 16006KT 3SM -RA BR SCT010 OVC025 FM201600 19007KT P6SM -SHRA OVC020 FM202100 22009KT P6SM VCSH SCT030 OVC040 FM210000 20007KT P6SM OVC040 FM210800 18004KT P6SM OVC025 Raw METAR KSEA 201715Z 20008KT 10SM SCT008 BKN012 OVC022 09/07 A2970 RMK AO2 RAE12 P0001 T00890072 ...METAR KSEA 010653Z 00000KT 10SM CLR 11/08 A3011 RMK AO2 SLP203 T01060078 $. There is little or no wind from a variable direction. Visibility is 10 mi. ... KSEA - Seattle-Tacoma International Airport METAR TAF. KRNT - Renton Municipal Airport (4.7 NM) METAR KBFI - Boeing Field/King County International ...See full list on metar-taf.com METAR KSEA 210937Z 23008KT 10SM BKN010 BKN065 12/09 A3017 RMK AO2 T01220094. The wind is from direction 230° with a speed of 8 kt. Visibility is 10 mi. The ceiling, broken or more, is 1,000 ft. The temperature and wind chill are 12 °C.METAR KSEA 011353Z VRB05KT 9SM OVC008 09/07 A3014 RMK AO2 CIG 004V009 SLP212 T00890067 $. There is little or no wind from a variable direction. Visibility is 9 mi. The ceiling, broken or more, is 800 ft. ... KSEA - Seattle-Tacoma International Airport METAR TAF. KRNT - Renton Municipal Airport (4.7 NM) METAR KBFI - Boeing Field/King County ...TAF Text Data. TAF Home. Plot. Data. Board. Info. IDs: Format: Raw Decoded Include METAR Data at: 1701 UTC 06 Apr 2023. KSEA 061653Z 11007KT 10SM -RA FEW015 BKN049 OVC060 09/05 A2987 RMK AO2 SLP122 P0002 T00890050 KSEA 061409Z 0614/0718 12008KT P6SM -RA SCT035 OVC045 FM062000 11012G22KT 6SM -RA BR OVC035 FM070400 16012KT 4SM -RA OVC025.METAR KSEA 151853Z 35007KT 10SM FEW040 SCT120 SCT200 30/12 A2996 RMK AO2 SLP147 T03000117. The wind is from direction 350° with a speed of 7 kt. Visibility is 10 mi. ... KSEA - Seattle-Tacoma International Airport METAR TAF. KRNT - Renton Municipal Airport (4.7 NM) METAR KBFI - Boeing Field/King County International ...Raw TAF KSEA 311737Z 3118/0124 19012G20KT P6SM -SHRA SCT020 BKN025 FM312100 19014G22KT P6SM -RA BKN025 OVC035 FM010000 21012G19KT P6SM -RA OVC020 FM010700 20010G20KT P6SM VCSH OVC025 METAR Board Radar Display Forecast Discussion. For situational awareness. Not to be used for flight planning purposes.METAR KSEA 111211Z 02008KT 6SM BR BKN006 OVC032 13/12 A3006 RMK AO2 T01330117. Current weather is mist.The wind is from direction 020° with a speed of 8 kt. Visibility is 6 mi. ... KSEA - Seattle-Tacoma International Airport METAR TAF. KRNT - Renton Municipal Airport (4.7 NM) METAR KBFI - Boeing Field/King County International ...KSEA - Seattle-Tacoma Intl, WA, US. Issued at 0535 UTC 02 Feb 2023. Updated at 0552 UTC 02 Feb 2023. Potential Impact: None: Slight: Moderate: High: Time 0453Z 02/06Z 02/07Z 02/08Z 02/09Z 02/10Z ... NOTE: LAMP data beyond the time of the TAF data is denoted as LAMP in Type and colored magenta.METAR KSEA 080653Z 21007KT 10SM BKN220 16/09 A2991 RMK AO2 SLP131 T01610094. The wind is from direction 210° with a speed of 7 kt. Visibility is 10 mi. The ceiling, broken or more, is 22,000 ft. The temperature and wind chill are 16 °C.OBST TOWER LGT (ASR 1004639) 472924.60N1221840.90W (2.4NM NE SEA) 501.0FT (109.9FT AGL) U/S. July 10, 2023 12:41 - October 7, 2023 21:00 LT. Notices to Airmen (NOTAM) for Seattle-Tacoma International Airport and Seattle FIR with maps.METAR KSEA 081753Z 23008KT 190V270 10SM BKN013 OVC020 18/13 A3006 RMK AO2 SLP183 T01830133 10183 20156 58005 $. The wind is from direction 230° with a speed of 8 kt. Visibility is 10 mi. The ceiling, broken or more, is 1,300 ft. The temperature and wind chill are 18 °C.METAR/TAF The International Weather Code By Bob Jackson, MIC, ZSE CWSU A ‘METAR’ is a ‘surface’ weather observation ‘TAF’ is a Terminal Aviation Forecast What - Type of product Where - Station Name Who - Used if automated When - Date and Time of METAR Wind - Given in Degrees ‘true North’ Weather - Present weather Remarks ...METAR KSEA 211953Z 19007KT 10SM OVC021 13/08 A3022 RMK AO2 SLP239 T01330083. The wind is from direction 190° with a speed of 7 kt. Visibility is 10 mi. The ceiling, broken or more, is 2,100 ft. The temperature and wind chill are 13 °C.Flight plan departing from KSEA - Seattle Tacoma Intl, arriving at KSFO - San Francisco Intl. Distance 627 nm / 1,162 km. Download for FSX, X-Plane, PMDG, Infinite Flight, PDF or other products. ... TAF. KSFO 030858Z 0309/0412 29006KT P6SM FEW005 FM032100 27012KT P6SM SKC FM040400 VRB05KT P6SM SKC Decode. Destination Runways. ID Width Length .... Info For situational awareness. Not to be used for flight plannTAF AMD KSEA 090916Z 0909/1012 20006KT P6SM taf; ksea : 121132z 1212/1318 00000kt 1/4sm fg vv001 fm121800 03004kt 4sm br bkn003 fm121900 36006kt 6sm br sct004 fm122000 35007kt p6sm sct200 fm130300 06006kt p6sm ... Impacts TAF Board. TAF Home. Plot. Data. Board. Info. For situati METAR KSEA 300153Z 35010KT 10SM SCT250 12/07 A2992 RMK AO2 SLP139 T01170067 $. The wind is from direction 350° with a speed of 10 kt. Visibility is 10 mi. No ceiling has been observed. ... KSEA - Seattle-Tacoma International Airport METAR TAF. KRNT - Renton Municipal Airport (4.7 NM) METAR KBFI - Boeing Field/King County International ...TAF Text Data. TAF Home. Plot. Data. Board. Info. IDs: Format: Raw Decoded Include METAR Data at: 1701 UTC 06 Apr 2023. KSEA 061653Z 11007KT 10SM -RA FEW015 BKN049 OVC060 09/05 A2987 RMK AO2 SLP122 P0002 T00890050 KSEA 061409Z 0614/0718 12008KT P6SM -RA SCT035 OVC045 FM062000 11012G22KT 6SM -RA BR … FM281200 VRB04KT P6SM -SHRA BKN030. FM28200...

Continue Reading